sensor_id;sensor_type;location;lat;lon;timestamp;P1;durP1;ratioP1;P2;durP2;ratioP2
8474;SDS011;4274;52.012;8.448;2023-04-02T00:02:34;40.17;;;4.67;;
8474;SDS011;4274;52.012;8.448;2023-04-02T00:05:29;42.03;;;5.27;;
8474;SDS011;4274;52.012;8.448;2023-04-02T00:11:05;40.57;;;4.90;;
8474;SDS011;4274;52.012;8.448;2023-04-02T00:13:38;43.37;;;5.50;;
8474;SDS011;4274;52.012;8.448;2023-04-02T00:16:10;41.30;;;4.90;;
8474;SDS011;4274;52.012;8.448;2023-04-02T00:18:45;42.17;;;5.40;;
8474;SDS011;4274;52.012;8.448;2023-04-02T00:23:45;41.80;;;5.80;;
8474;SDS011;4274;52.012;8.448;2023-04-02T00:26:26;40.67;;;5.50;;
8474;SDS011;4274;52.012;8.448;2023-04-02T00:28:58;41.67;;;5.70;;
8474;SDS011;4274;52.012;8.448;2023-04-02T00:31:24;42.37;;;5.97;;
8474;SDS011;4274;52.012;8.448;2023-04-02T00:33:51;43.50;;;6.53;;
8474;SDS011;4274;52.012;8.448;2023-04-02T00:36:18;48.53;;;7.03;;
8474;SDS011;4274;52.012;8.448;2023-04-02T00:38:45;42.83;;;6.47;;
8474;SDS011;4274;52.012;8.448;2023-04-02T00:41:32;43.80;;;6.70;;
8474;SDS011;4274;52.012;8.448;2023-04-02T00:44:00;42.47;;;5.90;;
8474;SDS011;4274;52.012;8.448;2023-04-02T00:46:30;44.67;;;7.33;;
8474;SDS011;4274;52.012;8.448;2023-04-02T00:49:13;42.30;;;5.80;;
8474;SDS011;4274;52.012;8.448;2023-04-02T00:51:55;42.50;;;6.20;;
8474;SDS011;4274;52.012;8.448;2023-04-02T00:54:24;46.87;;;6.20;;
8474;SDS011;4274;52.012;8.448;2023-04-02T00:56:54;40.93;;;5.67;;
8474;SDS011;4274;52.012;8.448;2023-04-02T00:59:28;40.90;;;5.43;;
8474;SDS011;4274;52.012;8.448;2023-04-02T01:02:45;41.03;;;5.63;;
8474;SDS011;4274;52.012;8.448;2023-04-02T01:04:50;41.90;;;5.60;;
8474;SDS011;4274;52.012;8.448;2023-04-02T01:16:18;43.73;;;7.00;;
8474;SDS011;4274;52.012;8.448;2023-04-02T01:31:56;47.90;;;7.93;;
8474;SDS011;4274;52.012;8.448;2023-04-02T01:34:26;46.13;;;7.80;;
8474;SDS011;4274;52.012;8.448;2023-04-02T01:36:57;46.67;;;8.70;;
8474;SDS011;4274;52.012;8.448;2023-04-02T01:39:33;50.73;;;9.23;;
8474;SDS011;4274;52.012;8.448;2023-04-02T01:44:53;49.50;;;8.40;;
8474;SDS011;4274;52.012;8.448;2023-04-02T01:47:26;50.43;;;8.93;;
8474;SDS011;4274;52.012;8.448;2023-04-02T01:50:04;50.43;;;9.30;;
8474;SDS011;4274;52.012;8.448;2023-04-02T01:52:39;47.37;;;8.27;;
8474;SDS011;4274;52.012;8.448;2023-04-02T01:55:07;48.03;;;8.97;;
8474;SDS011;4274;52.012;8.448;2023-04-02T01:57:37;52.50;;;9.03;;
8474;SDS011;4274;52.012;8.448;2023-04-02T02:00:07;47.50;;;9.27;;
8474;SDS011;4274;52.012;8.448;2023-04-02T02:02:37;49.87;;;8.83;;
8474;SDS011;4274;52.012;8.448;2023-04-02T02:05:04;51.13;;;8.70;;
8474;SDS011;4274;52.012;8.448;2023-04-02T02:07:34;58.70;;;9.40;;
8474;SDS011;4274;52.012;8.448;2023-04-02T02:09:59;53.27;;;9.17;;
8474;SDS011;4274;52.012;8.448;2023-04-02T02:12:25;48.53;;;9.80;;
8474;SDS011;4274;52.012;8.448;2023-04-02T02:14:51;53.47;;;8.00;;
8474;SDS011;4274;52.012;8.448;2023-04-02T02:17:17;48.33;;;9.33;;
8474;SDS011;4274;52.012;8.448;2023-04-02T02:19:48;54.10;;;10.10;;
8474;SDS011;4274;52.012;8.448;2023-04-02T02:22:20;61.83;;;8.93;;
8474;SDS011;4274;52.012;8.448;2023-04-02T02:24:57;58.27;;;9.17;;
8474;SDS011;4274;52.012;8.448;2023-04-02T02:32:23;51.30;;;8.50;;
8474;SDS011;4274;52.012;8.448;2023-04-02T02:34:59;52.57;;;9.27;;
8474;SDS011;4274;52.012;8.448;2023-04-02T02:37:40;47.90;;;9.20;;
8474;SDS011;4274;52.012;8.448;2023-04-02T02:40:10;49.07;;;8.13;;
8474;SDS011;4274;52.012;8.448;2023-04-02T02:42:44;49.60;;;8.80;;
8474;SDS011;4274;52.012;8.448;2023-04-02T02:45:15;53.80;;;8.47;;
8474;SDS011;4274;52.012;8.448;2023-04-02T02:47:45;46.50;;;8.53;;
8474;SDS011;4274;52.012;8.448;2023-04-02T02:50:20;49.17;;;8.87;;
8474;SDS011;4274;52.012;8.448;2023-04-02T02:52:51;47.97;;;7.87;;
8474;SDS011;4274;52.012;8.448;2023-04-02T02:55:20;47.33;;;8.50;;
8474;SDS011;4274;52.012;8.448;2023-04-02T02:58:36;45.70;;;7.67;;
8474;SDS011;4274;52.012;8.448;2023-04-02T03:00:41;48.97;;;8.37;;
8474;SDS011;4274;52.012;8.448;2023-04-02T03:03:11;47.70;;;8.40;;
8474;SDS011;4274;52.012;8.448;2023-04-02T03:05:41;54.30;;;8.33;;
8474;SDS011;4274;52.012;8.448;2023-04-02T03:08:10;47.33;;;7.50;;
8474;SDS011;4274;52.012;8.448;2023-04-02T03:10:44;49.13;;;7.73;;
8474;SDS011;4274;52.012;8.448;2023-04-02T03:15:53;45.03;;;7.33;;
8474;SDS011;4274;52.012;8.448;2023-04-02T03:21:23;46.33;;;7.40;;
8474;SDS011;4274;52.012;8.448;2023-04-02T03:24:04;49.30;;;7.27;;
8474;SDS011;4274;52.012;8.448;2023-04-02T03:26:48;49.33;;;7.00;;
8474;SDS011;4274;52.012;8.448;2023-04-02T03:29:27;46.80;;;7.50;;
8474;SDS011;4274;52.012;8.448;2023-04-02T03:31:58;49.43;;;7.00;;
8474;SDS011;4274;52.012;8.448;2023-04-02T03:34:30;48.00;;;7.00;;
8474;SDS011;4274;52.012;8.448;2023-04-02T03:37:21;49.27;;;7.00;;
8474;SDS011;4274;52.012;8.448;2023-04-02T03:39:56;45.47;;;6.60;;
8474;SDS011;4274;52.012;8.448;2023-04-02T03:42:43;43.60;;;5.63;;
8474;SDS011;4274;52.012;8.448;2023-04-02T03:45:14;44.63;;;7.30;;
8474;SDS011;4274;52.012;8.448;2023-04-02T03:52:49;48.67;;;6.63;;
8474;SDS011;4274;52.012;8.448;2023-04-02T04:00:24;43.50;;;5.97;;
8474;SDS011;4274;52.012;8.448;2023-04-02T04:03:04;47.27;;;6.47;;
8474;SDS011;4274;52.012;8.448;2023-04-02T04:05:50;44.70;;;5.53;;
8474;SDS011;4274;52.012;8.448;2023-04-02T04:08:44;51.53;;;6.53;;
8474;SDS011;4274;52.012;8.448;2023-04-02T04:11:15;44.90;;;6.07;;
8474;SDS011;4274;52.012;8.448;2023-04-02T04:13:58;43.63;;;5.90;;
8474;SDS011;4274;52.012;8.448;2023-04-02T04:19:39;44.73;;;5.17;;
8474;SDS011;4274;52.012;8.448;2023-04-02T04:22:22;46.10;;;5.90;;
8474;SDS011;4274;52.012;8.448;2023-04-02T04:24:54;49.03;;;5.37;;
8474;SDS011;4274;52.012;8.448;2023-04-02T04:27:54;43.50;;;5.23;;
8474;SDS011;4274;52.012;8.448;2023-04-02T04:32:55;45.73;;;5.43;;
8474;SDS011;4274;52.012;8.448;2023-04-02T04:35:30;52.60;;;4.17;;
8474;SDS011;4274;52.012;8.448;2023-04-02T04:40:54;42.60;;;5.30;;
8474;SDS011;4274;52.012;8.448;2023-04-02T04:43:30;44.83;;;5.20;;
8474;SDS011;4274;52.012;8.448;2023-04-02T04:46:02;42.50;;;4.60;;
8474;SDS011;4274;52.012;8.448;2023-04-02T04:52:16;46.50;;;4.90;;
8474;SDS011;4274;52.012;8.448;2023-04-02T04:54:30;41.40;;;4.93;;
8474;SDS011;4274;52.012;8.448;2023-04-02T04:56:58;43.97;;;4.97;;
8474;SDS011;4274;52.012;8.448;2023-04-02T04:59:39;44.17;;;4.30;;
8474;SDS011;4274;52.012;8.448;2023-04-02T05:02:13;47.90;;;4.47;;
8474;SDS011;4274;52.012;8.448;2023-04-02T05:04:49;41.17;;;4.40;;
8474;SDS011;4274;52.012;8.448;2023-04-02T05:07:22;48.23;;;4.93;;
8474;SDS011;4274;52.012;8.448;2023-04-02T05:09:55;46.17;;;5.73;;
8474;SDS011;4274;52.012;8.448;2023-04-02T05:12:36;42.07;;;5.43;;
8474;SDS011;4274;52.012;8.448;2023-04-02T05:15:15;41.60;;;4.70;;
8474;SDS011;4274;52.012;8.448;2023-04-02T05:18:07;42.80;;;5.37;;
8474;SDS011;4274;52.012;8.448;2023-04-02T05:20:51;50.80;;;4.67;;
8474;SDS011;4274;52.012;8.448;2023-04-02T05:23:36;42.10;;;5.13;;
8474;SDS011;4274;52.012;8.448;2023-04-02T05:26:15;44.40;;;5.23;;
8474;SDS011;4274;52.012;8.448;2023-04-02T05:29:08;47.13;;;6.00;;
8474;SDS011;4274;52.012;8.448;2023-04-02T05:34:34;47.23;;;7.07;;
8474;SDS011;4274;52.012;8.448;2023-04-02T05:37:01;44.10;;;5.13;;
8474;SDS011;4274;52.012;8.448;2023-04-02T05:39:33;45.80;;;6.47;;
8474;SDS011;4274;52.012;8.448;2023-04-02T05:42:02;42.00;;;4.77;;
8474;SDS011;4274;52.012;8.448;2023-04-02T05:44:31;41.30;;;4.47;;
8474;SDS011;4274;52.012;8.448;2023-04-02T05:47:18;42.67;;;4.30;;
8474;SDS011;4274;52.012;8.448;2023-04-02T05:49:50;41.00;;;4.90;;
8474;SDS011;4274;52.012;8.448;2023-04-02T05:55:28;46.53;;;4.87;;
8474;SDS011;4274;52.012;8.448;2023-04-02T05:58:01;43.17;;;4.47;;
8474;SDS011;4274;52.012;8.448;2023-04-02T06:03:05;45.67;;;6.03;;
8474;SDS011;4274;52.012;8.448;2023-04-02T06:05:42;48.63;;;6.30;;
8474;SDS011;4274;52.012;8.448;2023-04-02T06:08:10;45.80;;;6.90;;
8474;SDS011;4274;52.012;8.448;2023-04-02T06:10:49;42.63;;;4.60;;
8474;SDS011;4274;52.012;8.448;2023-04-02T06:13:23;46.73;;;5.50;;
8474;SDS011;4274;52.012;8.448;2023-04-02T06:15:49;44.03;;;4.07;;
8474;SDS011;4274;52.012;8.448;2023-04-02T06:18:33;47.87;;;5.27;;
8474;SDS011;4274;52.012;8.448;2023-04-02T06:21:01;41.70;;;4.30;;
8474;SDS011;4274;52.012;8.448;2023-04-02T06:26:38;42.90;;;4.90;;
8474;SDS011;4274;52.012;8.448;2023-04-02T06:29:12;41.07;;;4.13;;
8474;SDS011;4274;52.012;8.448;2023-04-02T06:31:41;44.13;;;4.50;;
8474;SDS011;4274;52.012;8.448;2023-04-02T06:34:13;41.63;;;4.77;;
8474;SDS011;4274;52.012;8.448;2023-04-02T06:36:41;45.17;;;4.20;;
8474;SDS011;4274;52.012;8.448;2023-04-02T06:39:08;40.97;;;4.10;;
8474;SDS011;4274;52.012;8.448;2023-04-02T06:41:41;44.13;;;4.67;;
8474;SDS011;4274;52.012;8.448;2023-04-02T06:44:09;44.67;;;4.30;;
8474;SDS011;4274;52.012;8.448;2023-04-02T06:46:44;39.97;;;4.00;;
8474;SDS011;4274;52.012;8.448;2023-04-02T06:51:47;39.83;;;4.10;;
8474;SDS011;4274;52.012;8.448;2023-04-02T06:54:16;41.47;;;3.60;;
8474;SDS011;4274;52.012;8.448;2023-04-02T06:56:49;45.00;;;5.73;;
8474;SDS011;4274;52.012;8.448;2023-04-02T06:59:17;43.20;;;5.30;;
8474;SDS011;4274;52.012;8.448;2023-04-02T07:01:47;41.87;;;3.93;;
8474;SDS011;4274;52.012;8.448;2023-04-02T07:04:40;42.43;;;4.73;;
8474;SDS011;4274;52.012;8.448;2023-04-02T07:07:06;42.30;;;4.60;;
8474;SDS011;4274;52.012;8.448;2023-04-02T07:09:31;42.07;;;4.03;;
8474;SDS011;4274;52.012;8.448;2023-04-02T07:11:57;42.37;;;5.33;;
8474;SDS011;4274;52.012;8.448;2023-04-02T07:14:23;43.43;;;4.50;;
8474;SDS011;4274;52.012;8.448;2023-04-02T07:16:48;38.87;;;3.83;;
8474;SDS011;4274;52.012;8.448;2023-04-02T07:19:19;41.73;;;4.10;;
8474;SDS011;4274;52.012;8.448;2023-04-02T07:21:46;43.70;;;4.20;;
8474;SDS011;4274;52.012;8.448;2023-04-02T07:24:12;41.30;;;4.13;;
8474;SDS011;4274;52.012;8.448;2023-04-02T07:26:38;41.43;;;4.20;;
8474;SDS011;4274;52.012;8.448;2023-04-02T07:29:07;41.60;;;4.40;;
8474;SDS011;4274;52.012;8.448;2023-04-02T07:31:37;46.50;;;4.10;;
8474;SDS011;4274;52.012;8.448;2023-04-02T07:34:05;40.53;;;4.70;;
8474;SDS011;4274;52.012;8.448;2023-04-02T07:36:31;40.37;;;3.90;;
8474;SDS011;4274;52.012;8.448;2023-04-02T07:38:56;42.60;;;3.37;;
8474;SDS011;4274;52.012;8.448;2023-04-02T07:41:22;41.93;;;4.20;;
8474;SDS011;4274;52.012;8.448;2023-04-02T07:43:48;43.00;;;4.03;;
8474;SDS011;4274;52.012;8.448;2023-04-02T07:46:13;39.80;;;3.33;;
8474;SDS011;4274;52.012;8.448;2023-04-02T07:48:42;48.03;;;4.40;;
8474;SDS011;4274;52.012;8.448;2023-04-02T07:51:18;41.60;;;4.13;;
8474;SDS011;4274;52.012;8.448;2023-04-02T07:53:50;43.27;;;3.77;;
8474;SDS011;4274;52.012;8.448;2023-04-02T07:56:19;40.40;;;3.70;;
8474;SDS011;4274;52.012;8.448;2023-04-02T07:58:45;40.97;;;3.23;;
8474;SDS011;4274;52.012;8.448;2023-04-02T08:01:15;42.90;;;3.70;;
8474;SDS011;4274;52.012;8.448;2023-04-02T08:03:51;39.23;;;3.70;;
8474;SDS011;4274;52.012;8.448;2023-04-02T08:06:17;41.53;;;4.00;;
8474;SDS011;4274;52.012;8.448;2023-04-02T08:08:43;49.93;;;3.67;;
8474;SDS011;4274;52.012;8.448;2023-04-02T08:11:09;39.93;;;3.50;;
8474;SDS011;4274;52.012;8.448;2023-04-02T08:13:35;42.00;;;3.73;;
8474;SDS011;4274;52.012;8.448;2023-04-02T08:16:01;40.47;;;3.03;;
8474;SDS011;4274;52.012;8.448;2023-04-02T08:18:28;40.90;;;3.37;;
8474;SDS011;4274;52.012;8.448;2023-04-02T08:20:54;41.13;;;3.30;;
8474;SDS011;4274;52.012;8.448;2023-04-02T08:23:20;41.37;;;3.60;;
8474;SDS011;4274;52.012;8.448;2023-04-02T08:25:47;42.77;;;3.40;;
8474;SDS011;4274;52.012;8.448;2023-04-02T08:28:12;41.70;;;2.93;;
8474;SDS011;4274;52.012;8.448;2023-04-02T08:30:39;41.73;;;3.30;;
8474;SDS011;4274;52.012;8.448;2023-04-02T08:33:05;39.57;;;3.00;;
8474;SDS011;4274;52.012;8.448;2023-04-02T08:35:30;39.43;;;3.33;;
8474;SDS011;4274;52.012;8.448;2023-04-02T08:37:56;41.77;;;3.10;;
8474;SDS011;4274;52.012;8.448;2023-04-02T08:40:26;40.13;;;2.90;;
8474;SDS011;4274;52.012;8.448;2023-04-02T08:48:39;40.03;;;3.23;;
8474;SDS011;4274;52.012;8.448;2023-04-02T08:51:13;41.37;;;3.07;;
8474;SDS011;4274;52.012;8.448;2023-04-02T08:53:50;47.13;;;3.50;;
8474;SDS011;4274;52.012;8.448;2023-04-02T08:56:38;40.10;;;3.00;;
8474;SDS011;4274;52.012;8.448;2023-04-02T08:59:14;39.37;;;3.00;;
8474;SDS011;4274;52.012;8.448;2023-04-02T09:04:43;48.93;;;3.20;;
8474;SDS011;4274;52.012;8.448;2023-04-02T09:07:13;40.80;;;3.67;;
8474;SDS011;4274;52.012;8.448;2023-04-02T09:09:40;39.73;;;2.90;;
8474;SDS011;4274;52.012;8.448;2023-04-02T09:12:14;39.60;;;3.00;;
8474;SDS011;4274;52.012;8.448;2023-04-02T09:17:22;40.67;;;3.00;;
8474;SDS011;4274;52.012;8.448;2023-04-02T09:22:21;40.90;;;3.17;;
8474;SDS011;4274;52.012;8.448;2023-04-02T09:24:50;39.37;;;2.97;;
8474;SDS011;4274;52.012;8.448;2023-04-02T09:27:17;39.27;;;2.97;;
8474;SDS011;4274;52.012;8.448;2023-04-02T09:29:45;43.13;;;3.30;;
8474;SDS011;4274;52.012;8.448;2023-04-02T09:32:18;40.30;;;3.17;;
8474;SDS011;4274;52.012;8.448;2023-04-02T09:34:46;40.67;;;3.07;;
8474;SDS011;4274;52.012;8.448;2023-04-02T09:37:18;39.20;;;3.03;;
8474;SDS011;4274;52.012;8.448;2023-04-02T09:39:47;40.10;;;3.50;;
8474;SDS011;4274;52.012;8.448;2023-04-02T09:42:27;39.43;;;3.30;;
8474;SDS011;4274;52.012;8.448;2023-04-02T09:45:16;48.13;;;3.43;;
8474;SDS011;4274;52.012;8.448;2023-04-02T09:47:45;39.60;;;3.30;;
8474;SDS011;4274;52.012;8.448;2023-04-02T09:52:46;42.70;;;3.50;;
8474;SDS011;4274;52.012;8.448;2023-04-02T09:55:17;39.90;;;3.13;;
8474;SDS011;4274;52.012;8.448;2023-04-02T09:57:43;44.50;;;3.13;;
8474;SDS011;4274;52.012;8.448;2023-04-02T10:02:40;44.13;;;3.27;;
8474;SDS011;4274;52.012;8.448;2023-04-02T10:05:22;42.73;;;3.37;;
8474;SDS011;4274;52.012;8.448;2023-04-02T10:07:49;44.10;;;3.20;;
8474;SDS011;4274;52.012;8.448;2023-04-02T10:13:25;40.10;;;2.80;;
8474;SDS011;4274;52.012;8.448;2023-04-02T10:20:57;40.00;;;2.60;;
8474;SDS011;4274;52.012;8.448;2023-04-02T10:23:25;42.57;;;3.43;;
8474;SDS011;4274;52.012;8.448;2023-04-02T10:28:45;41.70;;;3.10;;
8474;SDS011;4274;52.012;8.448;2023-04-02T10:34:22;44.40;;;3.40;;
8474;SDS011;4274;52.012;8.448;2023-04-02T10:36:56;45.50;;;3.47;;
8474;SDS011;4274;52.012;8.448;2023-04-02T10:42:08;42.13;;;3.20;;
8474;SDS011;4274;52.012;8.448;2023-04-02T10:44:54;40.77;;;3.40;;
8474;SDS011;4274;52.012;8.448;2023-04-02T10:50:30;43.30;;;2.87;;
8474;SDS011;4274;52.012;8.448;2023-04-02T10:53:05;39.80;;;2.77;;
8474;SDS011;4274;52.012;8.448;2023-04-02T10:55:39;41.80;;;3.07;;
8474;SDS011;4274;52.012;8.448;2023-04-02T10:58:24;45.30;;;2.97;;
8474;SDS011;4274;52.012;8.448;2023-04-02T11:00:58;41.47;;;3.27;;
8474;SDS011;4274;52.012;8.448;2023-04-02T11:03:35;41.50;;;2.77;;
8474;SDS011;4274;52.012;8.448;2023-04-02T11:06:25;41.33;;;3.00;;
8474;SDS011;4274;52.012;8.448;2023-04-02T11:09:13;41.37;;;3.30;;
8474;SDS011;4274;52.012;8.448;2023-04-02T11:11:45;45.40;;;3.40;;
8474;SDS011;4274;52.012;8.448;2023-04-02T11:14:30;40.80;;;3.00;;
8474;SDS011;4274;52.012;8.448;2023-04-02T11:16:57;41.37;;;3.10;;
8474;SDS011;4274;52.012;8.448;2023-04-02T11:22:37;42.20;;;2.80;;
8474;SDS011;4274;52.012;8.448;2023-04-02T11:24:42;43.10;;;2.90;;
8474;SDS011;4274;52.012;8.448;2023-04-02T11:27:14;45.80;;;3.70;;
8474;SDS011;4274;52.012;8.448;2023-04-02T11:37:54;40.50;;;2.77;;
8474;SDS011;4274;52.012;8.448;2023-04-02T11:45:59;43.40;;;3.90;;
8474;SDS011;4274;52.012;8.448;2023-04-02T11:48:26;47.27;;;3.13;;
8474;SDS011;4274;52.012;8.448;2023-04-02T11:50:57;43.67;;;3.50;;
8474;SDS011;4274;52.012;8.448;2023-04-02T11:53:30;42.97;;;4.33;;
8474;SDS011;4274;52.012;8.448;2023-04-02T11:59:00;42.30;;;2.93;;
8474;SDS011;4274;52.012;8.448;2023-04-02T12:10:18;42.00;;;2.30;;
8474;SDS011;4274;52.012;8.448;2023-04-02T12:13:16;45.27;;;2.90;;
8474;SDS011;4274;52.012;8.448;2023-04-02T12:15:44;42.70;;;3.27;;
8474;SDS011;4274;52.012;8.448;2023-04-02T12:20:55;42.50;;;2.67;;
8474;SDS011;4274;52.012;8.448;2023-04-02T12:23:28;45.77;;;2.93;;
8474;SDS011;4274;52.012;8.448;2023-04-02T12:26:00;44.70;;;3.47;;
8474;SDS011;4274;52.012;8.448;2023-04-02T12:28:27;42.70;;;2.90;;
8474;SDS011;4274;52.012;8.448;2023-04-02T12:31:10;42.50;;;2.63;;
8474;SDS011;4274;52.012;8.448;2023-04-02T12:33:38;43.90;;;2.80;;
8474;SDS011;4274;52.012;8.448;2023-04-02T12:36:06;42.90;;;2.60;;
8474;SDS011;4274;52.012;8.448;2023-04-02T12:38:43;42.47;;;2.77;;
8474;SDS011;4274;52.012;8.448;2023-04-02T12:41:19;48.47;;;2.90;;
8474;SDS011;4274;52.012;8.448;2023-04-02T12:43:59;42.70;;;3.17;;
8474;SDS011;4274;52.012;8.448;2023-04-02T12:46:26;41.70;;;3.03;;
8474;SDS011;4274;52.012;8.448;2023-04-02T12:48:53;44.60;;;2.93;;
8474;SDS011;4274;52.012;8.448;2023-04-02T12:51:28;45.60;;;3.77;;
8474;SDS011;4274;52.012;8.448;2023-04-02T12:53:54;44.83;;;3.00;;
8474;SDS011;4274;52.012;8.448;2023-04-02T12:56:21;43.00;;;3.10;;
8474;SDS011;4274;52.012;8.448;2023-04-02T12:58:54;42.90;;;2.60;;
8474;SDS011;4274;52.012;8.448;2023-04-02T13:01:22;43.70;;;3.17;;
8474;SDS011;4274;52.012;8.448;2023-04-02T13:04:08;42.97;;;2.90;;
8474;SDS011;4274;52.012;8.448;2023-04-02T13:06:39;46.00;;;3.10;;
8474;SDS011;4274;52.012;8.448;2023-04-02T13:14:54;41.97;;;2.73;;
8474;SDS011;4274;52.012;8.448;2023-04-02T13:17:37;42.87;;;2.90;;
8474;SDS011;4274;52.012;8.448;2023-04-02T13:23:22;43.17;;;2.90;;
8474;SDS011;4274;52.012;8.448;2023-04-02T13:25:53;42.57;;;2.80;;
8474;SDS011;4274;52.012;8.448;2023-04-02T13:28:23;43.37;;;2.90;;
8474;SDS011;4274;52.012;8.448;2023-04-02T13:30:50;43.10;;;2.90;;
8474;SDS011;4274;52.012;8.448;2023-04-02T13:33:15;45.83;;;2.70;;
8474;SDS011;4274;52.012;8.448;2023-04-02T13:35:41;42.93;;;2.70;;
8474;SDS011;4274;52.012;8.448;2023-04-02T13:38:07;42.57;;;2.40;;
8474;SDS011;4274;52.012;8.448;2023-04-02T13:40:34;41.97;;;2.80;;
8474;SDS011;4274;52.012;8.448;2023-04-02T13:43:01;43.20;;;3.13;;
8474;SDS011;4274;52.012;8.448;2023-04-02T13:45:28;44.23;;;3.30;;
8474;SDS011;4274;52.012;8.448;2023-04-02T13:48:01;42.53;;;2.97;;
8474;SDS011;4274;52.012;8.448;2023-04-02T13:50:28;45.37;;;3.10;;
8474;SDS011;4274;52.012;8.448;2023-04-02T13:52:56;42.93;;;2.90;;
8474;SDS011;4274;52.012;8.448;2023-04-02T13:55:25;43.13;;;2.97;;
8474;SDS011;4274;52.012;8.448;2023-04-02T13:57:53;46.20;;;3.10;;
8474;SDS011;4274;52.012;8.448;2023-04-02T14:00:20;42.90;;;2.90;;
8474;SDS011;4274;52.012;8.448;2023-04-02T14:02:47;43.80;;;2.67;;
8474;SDS011;4274;52.012;8.448;2023-04-02T14:19:03;43.40;;;2.70;;
8474;SDS011;4274;52.012;8.448;2023-04-02T14:24:26;45.63;;;3.40;;
8474;SDS011;4274;52.012;8.448;2023-04-02T14:29:49;42.70;;;3.17;;
8474;SDS011;4274;52.012;8.448;2023-04-02T14:32:45;42.30;;;2.93;;
8474;SDS011;4274;52.012;8.448;2023-04-02T14:35:31;44.57;;;2.90;;
8474;SDS011;4274;52.012;8.448;2023-04-02T14:40:54;45.70;;;2.83;;
8474;SDS011;4274;52.012;8.448;2023-04-02T14:43:31;44.07;;;3.10;;
8474;SDS011;4274;52.012;8.448;2023-04-02T14:46:07;41.30;;;2.90;;
8474;SDS011;4274;52.012;8.448;2023-04-02T14:48:39;41.90;;;2.80;;
8474;SDS011;4274;52.012;8.448;2023-04-02T14:51:16;42.00;;;3.00;;
8474;SDS011;4274;52.012;8.448;2023-04-02T14:57:21;41.90;;;2.60;;
8474;SDS011;4274;52.012;8.448;2023-04-02T15:08:36;40.77;;;2.50;;
8474;SDS011;4274;52.012;8.448;2023-04-02T15:11:21;45.97;;;2.90;;
8474;SDS011;4274;52.012;8.448;2023-04-02T15:13:53;44.47;;;2.93;;
8474;SDS011;4274;52.012;8.448;2023-04-02T15:16:27;40.77;;;2.50;;
8474;SDS011;4274;52.012;8.448;2023-04-02T15:18:57;40.50;;;2.47;;
8474;SDS011;4274;52.012;8.448;2023-04-02T15:21:41;42.50;;;3.00;;
8474;SDS011;4274;52.012;8.448;2023-04-02T15:32:42;43.10;;;2.80;;
8474;SDS011;4274;52.012;8.448;2023-04-02T15:35:20;42.70;;;2.97;;
8474;SDS011;4274;52.012;8.448;2023-04-02T15:38:16;44.20;;;2.87;;
8474;SDS011;4274;52.012;8.448;2023-04-02T15:41:02;44.50;;;2.30;;
8474;SDS011;4274;52.012;8.448;2023-04-02T15:43:42;42.50;;;3.00;;
8474;SDS011;4274;52.012;8.448;2023-04-02T15:46:20;42.47;;;3.40;;
8474;SDS011;4274;52.012;8.448;2023-04-02T16:07:40;43.90;;;3.10;;
8474;SDS011;4274;52.012;8.448;2023-04-02T16:10:16;45.43;;;3.40;;
8474;SDS011;4274;52.012;8.448;2023-04-02T16:12:48;41.67;;;2.83;;
8474;SDS011;4274;52.012;8.448;2023-04-02T16:15:16;42.50;;;3.50;;
8474;SDS011;4274;52.012;8.448;2023-04-02T16:17:59;50.47;;;3.00;;
8474;SDS011;4274;52.012;8.448;2023-04-02T16:20:30;45.50;;;2.73;;
8474;SDS011;4274;52.012;8.448;2023-04-02T16:23:10;42.00;;;3.30;;
8474;SDS011;4274;52.012;8.448;2023-04-02T16:25:58;41.70;;;2.97;;
8474;SDS011;4274;52.012;8.448;2023-04-02T16:36:44;43.00;;;3.47;;
8474;SDS011;4274;52.012;8.448;2023-04-02T16:44:34;45.30;;;3.20;;
8474;SDS011;4274;52.012;8.448;2023-04-02T16:50:17;45.83;;;2.97;;
8474;SDS011;4274;52.012;8.448;2023-04-02T16:55:49;43.90;;;3.50;;
8474;SDS011;4274;52.012;8.448;2023-04-02T16:58:45;42.90;;;2.87;;
8474;SDS011;4274;52.012;8.448;2023-04-02T17:06:42;45.27;;;3.83;;
8474;SDS011;4274;52.012;8.448;2023-04-02T17:11:50;43.83;;;4.40;;
8474;SDS011;4274;52.012;8.448;2023-04-02T17:14:32;44.87;;;3.70;;
8474;SDS011;4274;52.012;8.448;2023-04-02T17:17:03;46.57;;;2.97;;
8474;SDS011;4274;52.012;8.448;2023-04-02T17:19:29;45.73;;;4.27;;
8474;SDS011;4274;52.012;8.448;2023-04-02T17:21:57;43.17;;;3.60;;
8474;SDS011;4274;52.012;8.448;2023-04-02T17:27:04;46.80;;;6.87;;
8474;SDS011;4274;52.012;8.448;2023-04-02T17:29:36;43.40;;;4.07;;
8474;SDS011;4274;52.012;8.448;2023-04-02T17:32:05;43.30;;;3.73;;
8474;SDS011;4274;52.012;8.448;2023-04-02T17:34:46;43.27;;;3.63;;
8474;SDS011;4274;52.012;8.448;2023-04-02T17:45:19;42.80;;;2.70;;
8474;SDS011;4274;52.012;8.448;2023-04-02T17:48:01;41.17;;;2.50;;
8474;SDS011;4274;52.012;8.448;2023-04-02T17:53:09;43.67;;;3.47;;
8474;SDS011;4274;52.012;8.448;2023-04-02T17:55:47;42.30;;;3.27;;
8474;SDS011;4274;52.012;8.448;2023-04-02T18:01:54;43.73;;;3.43;;
8474;SDS011;4274;52.012;8.448;2023-04-02T18:07:39;42.67;;;2.77;;
8474;SDS011;4274;52.012;8.448;2023-04-02T18:10:28;40.73;;;2.53;;
8474;SDS011;4274;52.012;8.448;2023-04-02T18:15:54;42.00;;;2.90;;
8474;SDS011;4274;52.012;8.448;2023-04-02T18:32:23;42.20;;;3.20;;
8474;SDS011;4274;52.012;8.448;2023-04-02T18:40:33;41.63;;;3.40;;
8474;SDS011;4274;52.012;8.448;2023-04-02T18:43:09;42.70;;;3.93;;
8474;SDS011;4274;52.012;8.448;2023-04-02T18:48:38;43.03;;;3.50;;
8474;SDS011;4274;52.012;8.448;2023-04-02T18:51:08;49.00;;;4.33;;
8474;SDS011;4274;52.012;8.448;2023-04-02T18:53:40;44.73;;;4.20;;
8474;SDS011;4274;52.012;8.448;2023-04-02T18:56:09;43.40;;;3.20;;
8474;SDS011;4274;52.012;8.448;2023-04-02T18:58:48;41.07;;;3.30;;
8474;SDS011;4274;52.012;8.448;2023-04-02T19:01:35;42.13;;;3.70;;
8474;SDS011;4274;52.012;8.448;2023-04-02T19:04:10;41.77;;;3.60;;
8474;SDS011;4274;52.012;8.448;2023-04-02T19:06:56;47.07;;;6.20;;
8474;SDS011;4274;52.012;8.448;2023-04-02T19:09:38;41.13;;;2.90;;
8474;SDS011;4274;52.012;8.448;2023-04-02T19:12:14;42.40;;;3.77;;
8474;SDS011;4274;52.012;8.448;2023-04-02T19:14:42;52.30;;;6.43;;
8474;SDS011;4274;52.012;8.448;2023-04-02T19:17:13;48.27;;;5.17;;
8474;SDS011;4274;52.012;8.448;2023-04-02T19:23:07;44.43;;;5.00;;
8474;SDS011;4274;52.012;8.448;2023-04-02T19:28:29;45.67;;;5.00;;
8474;SDS011;4274;52.012;8.448;2023-04-02T19:34:16;41.67;;;3.10;;
8474;SDS011;4274;52.012;8.448;2023-04-02T19:44:46;53.17;;;6.83;;
8474;SDS011;4274;52.012;8.448;2023-04-02T19:47:15;42.40;;;3.80;;
8474;SDS011;4274;52.012;8.448;2023-04-02T19:49:41;44.30;;;4.83;;
8474;SDS011;4274;52.012;8.448;2023-04-02T19:52:07;61.43;;;12.97;;
8474;SDS011;4274;52.012;8.448;2023-04-02T19:54:32;78.80;;;19.00;;
8474;SDS011;4274;52.012;8.448;2023-04-02T19:56:58;50.43;;;7.60;;
8474;SDS011;4274;52.012;8.448;2023-04-02T19:59:24;43.03;;;3.50;;
8474;SDS011;4274;52.012;8.448;2023-04-02T20:01:50;45.17;;;4.37;;
8474;SDS011;4274;52.012;8.448;2023-04-02T20:04:15;41.83;;;3.77;;
8474;SDS011;4274;52.012;8.448;2023-04-02T20:06:41;44.10;;;3.30;;
8474;SDS011;4274;52.012;8.448;2023-04-02T20:09:07;42.53;;;3.60;;
8474;SDS011;4274;52.012;8.448;2023-04-02T20:11:33;43.00;;;4.70;;
8474;SDS011;4274;52.012;8.448;2023-04-02T20:13:59;43.00;;;3.90;;
8474;SDS011;4274;52.012;8.448;2023-04-02T20:16:25;42.80;;;3.50;;
8474;SDS011;4274;52.012;8.448;2023-04-02T20:18:51;44.77;;;3.83;;
8474;SDS011;4274;52.012;8.448;2023-04-02T20:21:17;42.20;;;3.17;;
8474;SDS011;4274;52.012;8.448;2023-04-02T20:23:43;43.57;;;4.03;;
8474;SDS011;4274;52.012;8.448;2023-04-02T20:26:08;43.13;;;4.47;;
8474;SDS011;4274;52.012;8.448;2023-04-02T20:28:35;41.20;;;3.23;;
8474;SDS011;4274;52.012;8.448;2023-04-02T20:31:07;43.70;;;3.83;;
8474;SDS011;4274;52.012;8.448;2023-04-02T20:33:34;43.30;;;4.20;;
8474;SDS011;4274;52.012;8.448;2023-04-02T20:36:02;40.87;;;3.40;;
8474;SDS011;4274;52.012;8.448;2023-04-02T20:38:32;41.20;;;3.23;;
8474;SDS011;4274;52.012;8.448;2023-04-02T20:41:00;42.80;;;3.80;;
8474;SDS011;4274;52.012;8.448;2023-04-02T20:43:26;42.60;;;3.90;;